Time;durP1;ratioP1;P1;durP2;ratioP2;P2;SDS_P1;SDS_P2;PMS_P1;PMS_P2;Temp;Humidity;BMP_temperature;BMP_pressure;BME280_temperature;BME280_humidity;BME280_pressure;Samples;Min_cycle;Max_cycle;Signal;HPM_P1;HPM_P2
2023/03/13 00:01:35;;;;;;;28.27;16.33;;;;;;;5.42;77.78;99720.75;4975118;28;20069;-75
2023/03/13 00:04:01;;;;;;;23.10;13.60;;;;;;;5.44;77.83;99724.16;4959376;28;20402;-76
2023/03/13 00:06:31;;;;;;;25.92;15.82;;;;;;;5.39;77.96;99726.22;4974032;28;20045;-75
2023/03/13 00:08:59;;;;;;;28.75;15.20;;;;;;;5.39;77.96;99726.22;4943278;28;20038;-75
2023/03/13 00:11:26;;;;;;;25.80;15.65;;;;;;;5.32;77.86;99713.28;4958872;28;20390;-75
2023/03/13 00:14:00;;;;;;;23.90;14.98;;;;;;;5.34;78.18;99724.66;4991224;28;20047;-75
2023/03/13 00:16:28;;;;;;;28.25;16.02;;;;;;;5.32;78.08;99710.63;4975007;28;20502;-75
2023/03/13 00:18:55;;;;;;;23.30;14.88;;;;;;;5.28;78.40;99708.22;4974655;28;20054;-76
2023/03/13 00:21:23;;;;;;;21.80;15.13;;;;;;;5.34;77.96;99702.56;4942874;28;20074;-76
2023/03/13 00:23:49;;;;;;;25.95;15.05;;;;;;;5.39;77.84;99713.81;4991311;28;20074;-75
2023/03/13 00:26:18;;;;;;;28.58;15.40;;;;;;;5.34;77.98;99702.56;4975882;28;20053;-75
2023/03/13 00:28:45;;;;;;;25.98;15.02;;;;;;;5.21;78.45;99696.22;4976035;28;20066;-75
2023/03/13 00:31:11;;;;;;;32.05;15.32;;;;;;;5.23;78.51;99705.81;4990933;28;20100;-75
2023/03/13 00:33:39;;;;;;;27.77;15.38;;;;;;;5.31;77.93;99700.13;4974279;28;20129;-76
2023/03/13 00:36:11;;;;;;;27.50;15.57;;;;;;;5.38;78.03;99697.97;4974792;28;20127;-75
2023/03/13 00:38:37;;;;;;;26.17;14.38;;;;;;;5.45;77.88;99700.22;4974701;28;20043;-75
2023/03/13 00:41:04;;;;;;;22.08;14.63;;;;;;;5.47;77.67;99703.66;4974277;28;20120;-76
2023/03/13 00:43:32;;;;;;;24.85;14.93;;;;;;;5.48;77.71;99689.44;4975352;28;20475;-74
2023/03/13 00:46:00;;;;;;;24.58;14.57;;;;;;;5.49;77.62;99679.69;4958141;28;20113;-74
2023/03/13 00:48:26;;;;;;;25.30;15.77;;;;;;;5.49;77.48;99664.66;4958281;28;20506;-76
2023/03/13 00:50:53;;;;;;;24.40;14.30;;;;;;;5.56;77.32;99671.31;4958310;28;20224;-75
2023/03/13 00:53:19;;;;;;;27.23;14.63;;;;;;;5.57;76.89;99657.16;4974026;28;20053;-75
2023/03/13 00:55:54;;;;;;;28.23;14.65;;;;;;;5.56;77.25;99660.72;4974215;28;20043;-75
2023/03/13 00:58:21;;;;;;;24.15;14.57;;;;;;;5.52;76.98;99669.78;4958081;28;20115;-76
2023/03/13 01:00:47;;;;;;;27.17;16.40;;;;;;;5.50;77.26;99665.53;4941832;28;20046;-76
2023/03/13 01:03:13;;;;;;;27.10;15.10;;;;;;;5.43;77.42;99667.63;4974329;28;20529;-75
2023/03/13 01:05:38;;;;;;;26.88;14.38;;;;;;;5.38;77.97;99655.56;4975313;28;20043;-77
2023/03/13 01:08:04;;;;;;;25.67;15.60;;;;;;;5.31;77.84;99655.06;4957787;28;20097;-75
2023/03/13 01:10:30;;;;;;;26.42;14.90;;;;;;;5.37;77.64;99654.69;4975030;28;20053;-76
2023/03/13 01:12:56;;;;;;;23.85;14.80;;;;;;;5.25;78.55;99644.75;4975178;28;20142;-76
2023/03/13 01:15:23;;;;;;;28.60;15.30;;;;;;;5.22;78.63;99658.16;4974928;28;20486;-75
2023/03/13 01:17:49;;;;;;;25.98;14.85;;;;;;;5.21;78.87;99648.53;4973773;28;20053;-75
2023/03/13 01:20:15;;;;;;;22.70;13.82;;;;;;;5.26;78.77;99641.16;4975194;28;20482;-76
2023/03/13 01:22:41;;;;;;;26.67;14.88;;;;;;;5.30;78.33;99643.59;4974784;28;20439;-76
2023/03/13 01:25:10;;;;;;;27.45;14.98;;;;;;;5.37;78.06;99633.50;4973824;28;20050;-75
2023/03/13 01:27:36;;;;;;;31.30;15.40;;;;;;;5.22;78.36;99639.63;4973598;28;20046;-76
2023/03/13 01:30:01;;;;;;;22.45;13.15;;;;;;;5.28;78.39;99620.75;4957515;28;20050;-76
2023/03/13 01:32:32;;;;;;;25.67;14.90;;;;;;;5.24;78.98;99611.25;4974431;28;20050;-76
2023/03/13 01:35:01;;;;;;;22.73;13.98;;;;;;;5.20;78.47;99634.41;4957343;28;20402;-76
2023/03/13 01:37:27;;;;;;;24.23;14.70;;;;;;;5.15;79.06;99639.09;4973392;28;20054;-74
2023/03/13 01:39:52;;;;;;;24.45;14.48;;;;;;;5.22;78.90;99631.66;4972747;28;20080;-76
2023/03/13 01:42:18;;;;;;;26.23;14.57;;;;;;;5.21;78.67;99628.16;4974304;28;20058;-76
2023/03/13 01:44:56;;;;;;;30.80;14.77;;;;;;;5.16;79.10;99614.31;4974446;28;20050;-75
2023/03/13 01:47:23;;;;;;;25.48;15.27;;;;;;;5.26;79.08;99625.25;4973963;28;20074;-75
2023/03/13 01:50:01;;;;;;;22.65;14.60;;;;;;;5.34;78.82;99620.41;4973332;28;20038;-76
2023/03/13 01:52:46;;;;;;;27.80;16.58;;;;;;;5.40;78.81;99614.78;4974269;28;20103;-75
2023/03/13 01:55:20;;;;;;;23.48;14.80;;;;;;;5.35;78.66;99614.19;4956933;28;20046;-76
2023/03/13 01:57:51;;;;;;;20.13;12.60;;;;;;;5.44;78.33;99618.13;4973432;28;20456;-76
2023/03/13 02:00:23;;;;;;;23.45;15.10;;;;;;;5.47;78.18;99626.75;4989091;28;20486;-76
2023/03/13 02:02:54;;;;;;;22.20;12.80;;;;;;;5.46;77.81;99625.06;4972836;28;20125;-76
2023/03/13 02:05:24;;;;;;;26.02;14.38;;;;;;;5.41;77.98;99629.75;4957278;28;20047;-76
2023/03/13 02:07:56;;;;;;;27.35;14.75;;;;;;;5.41;78.07;99640.34;4972840;28;20117;-76
2023/03/13 02:10:24;;;;;;;24.10;14.30;;;;;;;5.44;78.10;99624.28;4956892;28;20060;-77
2023/03/13 02:12:51;;;;;;;24.35;14.38;;;;;;;5.47;78.25;99640.03;4972878;28;20058;-75
2023/03/13 02:15:19;;;;;;;22.73;12.93;;;;;;;5.33;78.07;99640.75;4972656;28;20486;-75
2023/03/13 02:17:48;;;;;;;23.30;13.40;;;;;;;5.35;78.33;99632.75;4956493;28;20045;-78
2023/03/13 02:20:16;;;;;;;24.98;15.02;;;;;;;5.34;78.05;99646.91;4956523;28;20054;-76
2023/03/13 02:22:43;;;;;;;25.55;14.88;;;;;;;5.28;78.34;99636.66;4956321;28;20058;-77
2023/03/13 02:25:34;;;;;;;26.70;14.60;;;;;;;5.31;78.57;99644.44;4956554;28;20434;-76
2023/03/13 02:28:06;;;;;;;21.05;12.00;;;;;;;5.17;78.74;99639.03;4974219;28;20058;-76
2023/03/13 02:30:34;;;;;;;28.17;15.60;;;;;;;5.20;78.92;99646.81;4988925;28;20367;-74
2023/03/13 02:33:02;;;;;;;22.65;13.82;;;;;;;5.21;78.86;99635.28;4956461;28;20043;-76
2023/03/13 02:35:29;;;;;;;27.52;15.40;;;;;;;5.21;79.00;99648.53;4973807;28;20043;-76
2023/03/13 02:38:01;;;;;;;23.65;13.40;;;;;;;5.15;78.80;99640.88;4956333;28;20042;-76
2023/03/13 02:40:31;;;;;;;28.25;14.23;;;;;;;5.22;78.86;99644.91;4972422;28;20497;-75
2023/03/13 02:43:00;;;;;;;26.00;14.55;;;;;;;5.33;78.98;99643.41;4957092;28;20045;-76
2023/03/13 02:45:30;;;;;;;20.63;14.45;;;;;;;5.42;78.67;99642.06;4972419;28;20047;-78
2023/03/13 02:47:56;;;;;;;23.02;13.63;;;;;;;5.47;78.22;99640.03;4956708;28;20074;-76
2023/03/13 02:50:23;;;;;;;28.20;15.73;;;;;;;5.70;79.58;99640.56;4957242;28;20082;-83
2023/03/13 02:52:54;;;;;;;23.77;14.80;;;;;;;5.71;78.39;99636.97;4960573;28;20498;-86
2023/03/13 02:55:28;;;;;;;23.23;14.43;;;;;;;5.79;77.76;99634.72;4993087;28;20043;-77
2023/03/13 02:57:54;;;;;;;26.80;14.80;;;;;;;5.70;76.98;99624.66;4992669;28;20038;-76
2023/03/13 03:00:25;;;;;;;24.63;13.88;;;;;;;5.57;77.09;99633.28;4960396;28;20165;-76
2023/03/13 03:02:53;;;;;;;30.05;14.52;;;;;;;5.59;76.82;99642.00;4976767;28;20056;-76
2023/03/13 03:05:21;;;;;;;30.33;14.65;;;;;;;5.59;76.61;99630.53;4976164;28;20046;-76
2023/03/13 03:07:48;;;;;;;25.15;14.80;;;;;;;5.52;77.24;99627.34;4959752;28;20498;-80
2023/03/13 03:10:15;;;;;;;24.35;15.65;;;;;;;5.56;77.09;99623.59;4975632;28;20145;-75
2023/03/13 03:12:41;;;;;;;30.10;14.07;;;;;;;5.55;77.19;99627.19;4975953;28;20038;-75
2023/03/13 03:15:08;;;;;;;25.20;14.80;;;;;;;5.54;76.95;99625.50;4959957;28;20051;-77
2023/03/13 03:17:35;;;;;;;25.60;14.10;;;;;;;5.49;76.92;99619.59;4959895;28;20161;-76
2023/03/13 03:20:04;;;;;;;23.42;14.40;;;;;;;5.48;77.10;99625.81;4976650;28;20047;-77
2023/03/13 03:22:30;;;;;;;28.80;14.67;;;;;;;5.45;77.07;99620.69;4959851;28;20054;-78
2023/03/13 03:24:55;;;;;;;24.80;15.30;;;;;;;5.52;76.99;99624.72;4975979;28;20046;-76
2023/03/13 03:27:23;;;;;;;23.80;14.40;;;;;;;5.60;77.08;99614.56;4975681;28;20564;-74
2023/03/13 03:29:52;;;;;;;28.33;14.60;;;;;;;5.62;76.63;99609.16;4977107;28;20053;-76
2023/03/13 03:32:19;;;;;;;22.20;13.73;;;;;;;5.71;76.43;99615.75;4975909;28;20402;-76
2023/03/13 03:34:45;;;;;;;22.58;13.27;;;;;;;5.68;75.86;99618.56;4975395;28;20141;-74
2023/03/13 03:37:12;;;;;;;21.20;13.18;;;;;;;5.70;77.11;99614.88;4975564;28;20473;-78
2023/03/13 03:39:38;;;;;;;26.25;13.68;;;;;;;5.71;76.32;99597.16;4975438;28;20058;-75
2023/03/13 03:42:05;;;;;;;20.85;13.82;;;;;;;5.66;76.13;99610.69;4975275;28;20047;-76
2023/03/13 03:44:31;;;;;;;22.55;13.15;;;;;;;5.45;76.40;99590.66;4991479;28;20085;-78
2023/03/13 03:46:58;;;;;;;22.00;15.05;;;;;;;5.52;76.53;99600.84;4959251;28;20494;-76
2023/03/13 03:49:27;;;;;;;27.63;14.70;;;;;;;5.66;76.42;99585.97;4975331;28;20038;-76
2023/03/13 03:51:53;;;;;;;24.25;14.18;;;;;;;5.74;76.33;99578.44;4975666;28;20046;-75
2023/03/13 03:54:25;;;;;;;23.05;13.68;;;;;;;5.77;75.75;99580.91;4975488;28;20054;-76
2023/03/13 03:56:51;;;;;;;22.45;13.13;;;;;;;5.81;75.48;99585.13;4975095;28;20053;-80
2023/03/13 03:59:17;;;;;;;20.58;13.60;;;;;;;5.69;75.85;99585.81;4958980;28;20039;-79
2023/03/13 04:01:46;;;;;;;22.60;14.80;;;;;;;5.69;75.63;99591.13;4990721;28;20105;-76
2023/03/13 04:04:14;;;;;;;25.25;14.57;;;;;;;5.74;75.72;99589.03;4974390;28;20105;-75
2023/03/13 04:06:43;;;;;;;20.75;13.77;;;;;;;5.78;75.47;99590.59;4974929;28;20094;-74
2023/03/13 04:09:10;;;;;;;20.60;13.27;;;;;;;5.90;75.01;99599.63;4959278;28;20387;-76
2023/03/13 04:11:37;;;;;;;23.58;13.75;;;;;;;5.95;74.64;99592.34;4959112;28;20489;-75
2023/03/13 04:14:04;;;;;;;21.98;14.00;;;;;;;5.99;74.65;99584.09;4958857;28;20114;-78
2023/03/13 04:16:30;;;;;;;24.25;13.73;;;;;;;6.16;74.51;99585.75;4974803;28;20521;-76
2023/03/13 04:18:56;;;;;;;23.92;14.07;;;;;;;6.23;74.04;99583.63;4991227;28;20043;-76
2023/03/13 04:21:24;;;;;;;25.63;13.55;;;;;;;6.30;73.96;99575.19;4973864;28;20067;-77
2023/03/13 04:23:59;;;;;;;26.40;13.43;;;;;;;6.30;73.29;99579.66;4958933;28;20109;-76
2023/03/13 04:26:25;;;;;;;24.00;13.38;;;;;;;6.39;73.14;99578.25;4974512;28;20047;-76
2023/03/13 04:28:53;;;;;;;22.35;13.32;;;;;;;6.35;72.78;99566.97;4974246;28;20105;-75
2023/03/13 04:31:37;;;;;;;23.77;13.75;;;;;;;6.39;73.16;99564.97;4975095;28;20038;-77
2023/03/13 04:34:20;;;;;;;21.65;13.23;;;;;;;6.59;73.28;99577.94;4974904;28;20409;-76
2023/03/13 04:36:54;;;;;;;22.88;13.18;;;;;;;6.57;72.13;99566.53;4972994;28;20509;-76
2023/03/13 04:39:45;;;;;;;20.20;11.40;;;;;;;6.56;71.97;99573.66;4974482;28;20125;-76
2023/03/13 04:42:32;;;;;;;17.00;11.52;;;;;;;6.54;72.08;99559.63;4974436;28;20057;-75
2023/03/13 04:45:01;;;;;;;18.42;12.13;;;;;;;6.63;72.14;99560.03;4974307;28;20047;-76
2023/03/13 04:47:53;;;;;;;27.35;12.23;;;;;;;6.86;71.39;99540.88;4954008;28;20066;-78
2023/03/13 04:50:30;;;;;;;20.70;11.80;;;;;;;7.06;71.19;99556.41;4974779;28;20046;-76
2023/03/13 04:53:08;;;;;;;17.83;11.43;;;;;;;7.16;69.95;99546.09;4973870;28;20109;-76
2023/03/13 04:55:59;;;;;;;17.75;11.40;;;;;;;7.15;69.75;99549.69;4971044;28;20525;-76
2023/03/13 04:58:49;;;;;;;19.90;12.15;;;;;;;6.95;70.13;99527.00;4974246;28;20039;-76
2023/03/13 05:01:33;;;;;;;19.10;11.05;;;;;;;7.18;70.19;99532.69;4975581;28;20051;-76
2023/03/13 05:04:02;;;;;;;16.67;11.53;;;;;;;7.48;69.20;99525.41;4974010;28;20042;-76
2023/03/13 05:06:47;;;;;;;15.13;10.95;;;;;;;7.59;68.46;99526.53;4973979;28;20043;-75
2023/03/13 05:09:29;;;;;;;17.02;10.80;;;;;;;7.99;67.68;99519.44;4958030;28;20047;-75
2023/03/13 05:12:08;;;;;;;19.27;12.00;;;;;;;7.96;66.85;99519.66;4973989;28;20498;-76
2023/03/13 05:14:56;;;;;;;15.90;11.25;;;;;;;8.06;67.01;99499.44;4974359;28;20129;-75
2023/03/13 05:17:51;;;;;;;15.10;10.55;;;;;;;8.13;66.44;99505.22;4974049;28;20042;-76
2023/03/13 05:20:38;;;;;;;15.38;11.82;;;;;;;8.20;66.01;99514.50;4974657;28;20490;-75
2023/03/13 05:23:18;;;;;;;17.58;11.77;;;;;;;8.27;65.58;99510.44;4973393;28;20138;-75
2023/03/13 05:25:44;;;;;;;16.17;11.10;;;;;;;8.37;64.89;99498.25;4973789;28;20141;-76
2023/03/13 05:28:13;;;;;;;18.15;11.63;;;;;;;8.51;64.73;99489.31;4989258;28;20050;-76
2023/03/13 05:30:53;;;;;;;14.63;10.65;;;;;;;8.68;64.30;99501.47;4957328;28;20058;-77
2023/03/13 05:33:41;;;;;;;13.73;10.95;;;;;;;8.81;64.19;99497.00;4973509;28;20061;-76
2023/03/13 05:36:38;;;;;;;15.80;10.98;;;;;;;8.83;63.12;99492.38;4974207;28;20561;-76
2023/03/13 05:39:32;;;;;;;17.20;10.52;;;;;;;8.92;62.37;99483.75;4973369;28;20042;-77
2023/03/13 05:42:16;;;;;;;16.38;10.82;;;;;;;8.99;63.09;99485.03;4957304;28;20065;-76
2023/03/13 05:44:52;;;;;;;16.02;10.73;;;;;;;8.90;62.22;99491.00;4989610;28;20058;-76
2023/03/13 05:47:38;;;;;;;14.13;10.88;;;;;;;8.97;62.43;99484.28;4972942;28;20078;-76
2023/03/13 05:50:17;;;;;;;15.45;11.10;;;;;;;9.12;62.10;99481.47;4972988;28;20535;-75
2023/03/13 05:53:09;;;;;;;17.27;11.30;;;;;;;9.57;61.13;99479.09;4971616;28;20050;-78
2023/03/13 05:55:55;;;;;;;19.67;11.68;;;;;;;9.49;60.79;99471.66;4969150;28;20082;-77
2023/03/13 05:58:41;;;;;;;13.07;10.35;;;;;;;9.55;60.29;99468.50;4974319;28;20229;-78
2023/03/13 06:01:30;;;;;;;14.15;10.75;;;;;;;9.17;60.46;99471.31;4974513;28;20070;-77
2023/03/13 06:04:08;;;;;;;15.50;10.32;;;;;;;9.11;60.77;99469.13;4974236;28;20050;-77
2023/03/13 06:06:35;;;;;;;15.70;11.40;;;;;;;9.24;60.98;99461.91;4972954;28;20043;-78
2023/03/13 06:09:02;;;;;;;16.88;12.07;;;;;;;9.42;60.05;99468.56;4972385;28;20858;-77
2023/03/13 06:11:31;;;;;;;19.33;13.07;;;;;;;9.38;60.02;99458.25;4956637;28;20045;-76
2023/03/13 06:13:57;;;;;;;20.17;12.38;;;;;;;9.37;60.46;99452.06;4989161;28;20131;-76
2023/03/13 06:16:29;;;;;;;20.27;12.23;;;;;;;9.47;60.04;99452.22;4957167;28;20050;-76
2023/03/13 06:19:01;;;;;;;18.80;13.48;;;;;;;9.49;60.09;99456.50;4972956;28;20050;-75
2023/03/13 06:21:27;;;;;;;19.02;13.00;;;;;;;9.52;59.59;99433.22;4974053;28;20513;-76
2023/03/13 06:23:54;;;;;;;17.95;13.27;;;;;;;9.73;59.36;99442.28;4972672;28;20105;-77
2023/03/13 06:26:20;;;;;;;20.15;13.20;;;;;;;9.66;58.99;99452.56;4973478;28;20482;-75
2023/03/13 06:28:47;;;;;;;21.85;13.82;;;;;;;9.51;58.86;99447.50;4974016;28;20406;-76
2023/03/13 06:31:13;;;;;;;16.83;12.45;;;;;;;9.44;59.55;99441.78;4972690;28;20042;-76
2023/03/13 06:33:39;;;;;;;20.13;13.07;;;;;;;9.41;59.30;99442.88;4988943;28;20051;-76
2023/03/13 06:36:05;;;;;;;20.15;13.98;;;;;;;8.95;59.99;99432.88;4988720;28;20046;-76
2023/03/13 06:38:32;;;;;;;18.60;13.65;;;;;;;9.07;60.27;99424.97;4974360;28;20046;-76
2023/03/13 06:40:58;;;;;;;27.08;14.60;;;;;;;9.20;60.19;99423.09;4973011;28;20047;-75
2023/03/13 06:43:24;;;;;;;25.00;13.48;;;;;;;9.29;60.04;99419.78;4973826;28;20379;-76
2023/03/13 06:45:50;;;;;;;21.52;14.25;;;;;;;9.15;59.74;99414.59;4956458;28;20058;-77
2023/03/13 06:48:17;;;;;;;18.60;13.18;;;;;;;9.31;60.20;99407.16;4973695;28;20046;-75
2023/03/13 06:50:42;;;;;;;17.15;12.35;;;;;;;9.55;59.86;99399.13;4972283;28;20402;-77
2023/03/13 06:53:15;;;;;;;18.48;13.07;;;;;;;9.84;59.06;99404.94;4972273;28;20046;-76
2023/03/13 06:55:41;;;;;;;14.55;11.18;;;;;;;9.66;58.22;99395.66;4988890;28;20409;-76
2023/03/13 06:58:07;;;;;;;15.32;11.85;;;;;;;9.31;59.17;99393.81;4972474;28;20043;-76
2023/03/13 07:00:33;;;;;;;17.77;12.27;;;;;;;9.35;59.03;99378.44;4972508;28;20462;-75
2023/03/13 07:03:00;;;;;;;16.42;12.48;;;;;;;9.68;58.96;99385.72;4972279;28;20353;-76
2023/03/13 07:05:25;;;;;;;15.27;12.85;;;;;;;9.78;58.05;99386.75;4972753;28;20038;-75
2023/03/13 07:07:51;;;;;;;14.70;11.63;;;;;;;9.77;57.74;99387.69;4972207;28;20053;-74
2023/03/13 07:10:17;;;;;;;14.25;11.65;;;;;;;9.80;57.91;99384.78;4973496;28;20053;-75
2023/03/13 07:12:43;;;;;;;15.15;11.20;;;;;;;9.54;58.43;99393.91;4973645;28;20050;-76
2023/03/13 07:15:09;;;;;;;13.00;10.85;;;;;;;9.55;58.36;99367.09;4972410;28;20122;-76
2023/03/13 07:17:36;;;;;;;15.60;11.77;;;;;;;9.56;58.26;99368.84;4972288;28;20089;-75
2023/03/13 07:20:04;;;;;;;12.23;10.80;;;;;;;9.90;57.98;99361.78;4973043;28;20043;-75
2023/03/13 07:22:30;;;;;;;16.83;11.40;;;;;;;9.82;57.42;99360.66;4956592;28;20113;-76
2023/03/13 07:24:55;;;;;;;11.52;10.30;;;;;;;9.85;56.98;99369.25;4972598;28;20047;-76
2023/03/13 07:27:21;;;;;;;12.68;10.13;;;;;;;9.59;57.61;99381.94;4988342;28;20057;-78
2023/03/13 07:29:48;;;;;;;13.15;9.80;;;;;;;9.59;57.78;99375.72;4974296;28;20035;-75
2023/03/13 07:32:14;;;;;;;12.18;10.07;;;;;;;9.52;57.55;99364.69;4974815;28;20063;-75
2023/03/13 07:34:43;;;;;;;14.00;10.15;;;;;;;9.59;57.55;99354.38;4956433;28;20049;-75
2023/03/13 07:37:11;;;;;;;17.40;10.27;;;;;;;9.53;57.94;99360.22;4956203;28;20094;-77
2023/03/13 07:39:37;;;;;;;14.00;10.70;;;;;;;9.85;57.86;99350.56;4976243;28;20046;-75
2023/03/13 07:42:02;;;;;;;24.55;10.90;;;;;;;10.06;56.64;99355.25;4976723;28;20046;-75
2023/03/13 07:44:28;;;;;;;13.07;11.50;;;;;;;10.19;56.66;99358.66;4976406;28;20134;-76
2023/03/13 07:46:54;;;;;;;15.25;11.50;;;;;;;10.26;55.91;99353.72;4975348;28;20133;-76
2023/03/13 07:49:20;;;;;;;15.40;11.43;;;;;;;10.23;56.11;99354.78;4975735;28;20134;-76
2023/03/13 07:51:47;;;;;;;14.40;11.18;;;;;;;10.58;55.93;99345.81;4959395;28;20520;-76
2023/03/13 07:54:13;;;;;;;17.15;11.40;;;;;;;10.79;55.09;99325.38;4976756;28;20039;-76
2023/03/13 07:56:39;;;;;;;14.88;11.57;;;;;;;10.82;54.73;99335.81;4959314;28;20564;-76
2023/03/13 07:59:05;;;;;;;15.02;11.45;;;;;;;10.76;54.47;99341.69;4975023;28;20047;-76
2023/03/13 08:01:31;;;;;;;17.15;12.52;;;;;;;10.92;54.88;99342.13;4991299;28;20054;-75
2023/03/13 08:04:00;;;;;;;13.02;11.07;;;;;;;11.03;54.22;99337.72;4975135;28;20085;-75
2023/03/13 08:06:26;;;;;;;14.55;11.70;;;;;;;11.06;53.73;99340.16;4976218;28;20059;-76
2023/03/13 08:08:55;;;;;;;14.57;12.77;;;;;;;11.08;53.93;99320.31;4958969;28;20078;-76
2023/03/13 08:11:24;;;;;;;20.00;12.23;;;;;;;11.21;53.33;99322.84;4976079;28;20050;-77
2023/03/13 08:13:50;;;;;;;14.60;12.07;;;;;;;11.03;53.37;99313.66;4974559;28;20042;-76
2023/03/13 08:16:27;;;;;;;15.48;11.93;;;;;;;11.03;53.53;99310.97;4990113;28;20058;-78
2023/03/13 08:18:55;;;;;;;14.23;11.35;;;;;;;11.04;53.96;99324.22;4995537;28;20085;-77
2023/03/13 08:21:24;;;;;;;12.90;11.00;;;;;;;11.09;53.24;99315.81;4968951;28;20059;-76
2023/03/13 08:23:58;;;;;;;13.38;10.27;;;;;;;11.06;53.38;99306.22;4972509;28;20058;-76
2023/03/13 08:26:28;;;;;;;12.95;10.90;;;;;;;11.32;53.63;99312.09;4975572;28;20051;-74
2023/03/13 08:28:59;;;;;;;12.30;10.27;;;;;;;11.23;53.11;99295.94;4965641;28;20073;-77
2023/03/13 08:31:40;;;;;;;11.60;10.20;;;;;;;11.08;53.05;99303.41;4983065;28;20458;-77
2023/03/13 08:34:06;;;;;;;15.43;12.57;;;;;;;10.82;53.35;99301.06;4993010;28;20430;-77
2023/03/13 08:36:35;;;;;;;15.00;10.55;;;;;;;10.44;54.39;99298.81;4961834;28;20042;-76
2023/03/13 08:39:04;;;;;;;11.48;9.48;;;;;;;10.64;60.08;99294.53;4980055;28;20042;-78
2023/03/13 08:41:36;;;;;;;19.40;11.38;;;;;;;10.71;54.74;99287.72;4993722;28;20043;-78
2023/03/13 08:44:03;;;;;;;14.10;11.98;;;;;;;10.55;54.44;99279.25;4995009;28;20053;-77
2023/03/13 08:46:31;;;;;;;15.55;11.90;;;;;;;10.69;53.97;99292.34;4961363;28;20038;-80
2023/03/13 08:48:57;;;;;;;14.10;11.40;;;;;;;10.65;54.16;99291.75;4977690;28;20046;-77
2023/03/13 08:51:25;;;;;;;13.25;11.77;;;;;;;10.52;54.38;99288.34;4994714;28;20132;-77
2023/03/13 08:53:52;;;;;;;15.53;11.70;;;;;;;10.52;57.02;99275.00;4994618;28;20103;-79
2023/03/13 08:56:20;;;;;;;20.05;12.77;;;;;;;10.63;54.26;99277.66;4988187;28;20054;-78
2023/03/13 08:58:51;;;;;;;14.18;11.85;;;;;;;10.45;54.35;99281.81;4954730;29;20051;-77
2023/03/13 09:01:17;;;;;;;14.30;12.02;;;;;;;10.24;54.75;99260.31;4938289;29;20047;-76
2023/03/13 09:03:43;;;;;;;14.50;11.60;;;;;;;9.98;55.35;99268.56;4953452;29;20054;-77
2023/03/13 09:06:10;;;;;;;19.13;11.77;;;;;;;10.02;55.41;99265.66;4954301;28;20047;-77
2023/03/13 09:08:38;;;;;;;17.48;12.30;;;;;;;10.09;55.50;99264.22;4955670;28;20051;-77
2023/03/13 09:11:10;;;;;;;14.10;11.40;;;;;;;10.12;55.08;99255.97;4955324;28;20434;-77
2023/03/13 09:13:38;;;;;;;14.20;11.90;;;;;;;10.01;55.28;99250.63;4938587;29;20039;-75
2023/03/13 09:16:07;;;;;;;16.33;11.57;;;;;;;10.28;54.97;99255.59;4954134;28;20462;-76
2023/03/13 09:18:34;;;;;;;15.90;11.10;;;;;;;10.26;54.99;99255.72;4953372;29;20557;-76
2023/03/13 09:21:00;;;;;;;14.68;11.35;;;;;;;10.39;55.11;99231.53;4953931;28;20059;-76
2023/03/13 09:23:27;;;;;;;17.55;12.27;;;;;;;10.80;54.50;99238.00;4974797;28;20406;-75
2023/03/13 09:25:55;;;;;;;17.00;12.15;;;;;;;10.93;53.90;99223.47;4974572;28;20553;-75
2023/03/13 09:28:21;;;;;;;15.40;11.32;;;;;;;11.28;53.42;99224.16;4976112;28;20047;-76
2023/03/13 09:30:50;;;;;;;14.55;11.77;;;;;;;11.28;52.72;99218.81;4992291;28;20132;-74
2023/03/13 09:33:17;;;;;;;17.47;11.70;;;;;;;11.21;52.87;99217.63;4983248;28;20045;-74
2023/03/13 09:35:49;;;;;;;13.82;10.82;;;;;;;10.89;52.89;99223.84;4967581;28;20038;-75
2023/03/13 09:38:20;;;;;;;13.00;11.38;;;;;;;11.01;53.89;99221.97;4974712;28;20041;-74
2023/03/13 09:40:49;;;;;;;14.63;11.20;;;;;;;11.37;53.01;99229.59;4973249;28;20046;-79
2023/03/13 09:43:46;;;;;;;13.70;10.77;;;;;;;11.38;51.98;99230.44;4987366;28;20038;-76
2023/03/13 09:46:21;;;;;;;12.82;11.20;;;;;;;10.97;52.70;99224.06;4975883;28;20073;-74
2023/03/13 09:49:33;;;;;;;15.20;10.60;;;;;;;10.89;53.28;99219.34;4991823;28;20080;-74
2023/03/13 09:52:23;;;;;;;16.10;11.57;;;;;;;10.97;52.97;99216.03;4976374;28;20497;-75
2023/03/13 09:55:01;;;;;;;;;;;;;;;10.76;53.62;99220.53;4992938;28;20089;-76
2023/03/13 09:57:43;;;;;;;;;;;;;;;10.77;53.67;99208.84;4944456;28;19917;-75
2023/03/13 10:00:26;;;;;;;12.20;10.15;;;;;;;10.50;54.05;99207.47;4972704;28;19945;-76
2023/03/13 10:03:10;;;;;;;15.40;11.75;;;;;;;10.42;54.04;99210.78;4971356;28;20054;-75
2023/03/13 10:05:42;;;;;;;18.08;12.60;;;;;;;10.44;54.16;99208.81;4982152;28;20050;-76
2023/03/13 10:08:22;;;;;;;16.08;12.18;;;;;;;10.42;54.45;99207.25;4976261;28;20085;-75
2023/03/13 10:11:00;;;;;;;21.05;13.05;;;;;;;10.24;54.60;99190.84;4976146;28;20063;-75
2023/03/13 10:13:45;;;;;;;24.35;14.43;;;;;;;10.34;54.64;99181.16;4992426;28;20038;-74
2023/03/13 10:16:20;;;;;;;20.90;14.15;;;;;;;10.15;54.47;99192.44;4980574;28;20055;-75
2023/03/13 10:18:51;;;;;;;18.08;13.88;;;;;;;10.19;54.99;99199.25;4954349;29;20050;-75
2023/03/13 10:21:23;;;;;;;34.28;15.82;;;;;;;10.12;55.04;99170.50;4921241;29;20126;-78
2023/03/13 10:23:58;;;;;;;26.55;14.68;;;;;;;10.29;54.72;99193.19;4937209;29;20051;-76
2023/03/13 10:26:31;;;;;;;21.10;14.70;;;;;;;10.21;54.73;99186.59;4954020;29;20106;-76
2023/03/13 10:29:18;;;;;;;21.42;14.82;;;;;;;10.09;54.90;99190.28;4937044;29;20407;-76
2023/03/13 10:31:58;;;;;;;20.90;14.40;;;;;;;9.84;55.44;99177.19;4921806;29;20106;-75
2023/03/13 10:34:26;;;;;;;23.17;14.52;;;;;;;9.91;55.60;99181.06;4953666;29;20047;-75
2023/03/13 10:37:00;;;;;;;19.98;14.30;;;;;;;9.88;55.19;99183.97;4937108;29;20507;-76
2023/03/13 10:39:28;;;;;;;22.90;14.95;;;;;;;9.94;55.75;99183.50;4937524;29;20043;-76
2023/03/13 10:42:11;;;;;;;18.52;14.15;;;;;;;10.02;55.69;99177.53;4953452;29;20055;-74
2023/03/13 10:44:37;;;;;;;20.02;13.45;;;;;;;10.09;55.49;99176.06;4953691;29;20075;-75
2023/03/13 10:47:03;;;;;;;22.33;13.40;;;;;;;10.07;54.98;99172.66;4953191;29;20563;-76
2023/03/13 10:49:30;;;;;;;18.63;12.90;;;;;;;9.81;55.64;99178.25;4954586;29;20050;-75
2023/03/13 10:52:02;;;;;;;17.58;13.68;;;;;;;9.57;56.18;99166.88;4937669;29;20130;-75
2023/03/13 10:54:30;;;;;;;17.90;13.60;;;;;;;9.44;56.44;99159.84;4953188;29;20045;-77
2023/03/13 10:57:36;;;;;;;18.35;14.18;;;;;;;9.42;57.03;99177.78;4921558;29;20137;-76
2023/03/13 11:00:25;;;;;;;19.90;13.73;;;;;;;9.42;56.67;99169.75;4937533;29;20388;-75
2023/03/13 11:02:53;;;;;;;20.53;14.00;;;;;;;9.33;56.93;99165.16;4937648;29;20039;-76
2023/03/13 11:05:27;;;;;;;21.95;14.70;;;;;;;9.27;57.18;99157.63;4953240;29;20054;-77
2023/03/13 11:07:54;;;;;;;20.58;14.32;;;;;;;9.21;57.51;99158.09;4937286;29;20047;-76
2023/03/13 11:10:28;;;;;;;21.23;14.93;;;;;;;9.23;57.40;99161.50;4953950;29;20062;-77
2023/03/13 11:12:56;;;;;;;19.23;14.65;;;;;;;9.18;57.32;99151.19;4953241;28;20529;-75
2023/03/13 11:15:25;;;;;;;20.85;14.07;;;;;;;9.12;57.40;99164.16;4957179;29;20050;-76
2023/03/13 11:18:13;;;;;;;18.70;14.45;;;;;;;9.04;57.85;99161.22;4957339;29;20573;-76
2023/03/13 11:20:44;;;;;;;18.75;13.43;;;;;;;8.98;57.75;99155.38;4958171;29;20070;-76
2023/03/13 11:23:35;;;;;;;19.88;14.38;;;;;;;9.03;58.02;99146.16;4956704;29;20490;-75
2023/03/13 11:26:09;;;;;;;22.63;13.45;;;;;;;8.89;57.95;99134.75;4940224;29;20039;-75
2023/03/13 11:29:01;;;;;;;25.42;15.63;;;;;;;9.03;58.23;99127.50;4940476;29;20501;-75
2023/03/13 11:31:40;;;;;;;18.45;12.63;;;;;;;9.11;57.57;99127.78;4940603;29;20093;-74
2023/03/13 11:34:34;;;;;;;18.73;13.80;;;;;;;9.00;57.86;99128.63;4940311;29;20078;-77
2023/03/13 11:37:04;;;;;;;19.55;13.63;;;;;;;8.82;58.09;99132.69;4956486;29;20051;-74
2023/03/13 11:39:45;;;;;;;17.92;11.95;;;;;;;8.47;59.11;99131.72;4956552;29;20047;-75
2023/03/13 11:42:11;;;;;;;22.05;13.98;;;;;;;8.44;59.12;99145.25;4956232;29;20039;-76
2023/03/13 11:45:00;;;;;;;20.33;13.00;;;;;;;8.46;59.13;99121.16;4957268;29;20410;-76